Time;durP1;ratioP1;P1;durP2;ratioP2;P2;SDS_P1;SDS_P2;PMS_P1;PMS_P2;Temp;Humidity;BMP_temperature;BMP_pressure;BME280_temperature;BME280_humidity;BME280_pressure;Samples;Min_cycle;Max_cycle;Signal;HPM_P1;HPM_P2
2022/08/14 00:01:29;;;;;;;7.90;5.00;;;28.70;99.90;;;;;;4209476;28;20048;-70
2022/08/14 00:03:35;;;;;;;11.27;5.68;;;28.80;99.90;;;;;;4210981;28;20490;-70
2022/08/14 00:05:45;;;;;;;10.07;5.30;;;28.80;99.90;;;;;;4225436;28;20056;-69
2022/08/14 00:08:00;;;;;;;14.18;5.85;;;28.80;99.90;;;;;;4209311;28;20131;-69
2022/08/14 00:10:19;;;;;;;15.18;6.00;;;28.90;99.90;;;;;;4209339;28;20040;-69
2022/08/14 00:12:51;;;;;;;11.80;5.40;;;28.90;99.90;;;;;;4173964;28;20048;-69
2022/08/14 00:14:59;;;;;;;11.73;6.18;;;28.90;99.90;;;;;;4155304;28;20061;-68
2022/08/14 00:17:05;;;;;;;11.43;6.22;;;28.90;99.90;;;;;;4172101;28;20075;-68
2022/08/14 00:19:13;;;;;;;11.32;5.65;;;28.90;99.90;;;;;;4172391;28;20072;-71
2022/08/14 00:21:23;;;;;;;11.15;5.95;;;29.00;99.90;;;;;;4173371;28;20037;-69
2022/08/14 00:23:33;;;;;;;9.32;5.20;;;28.90;99.90;;;;;;4168123;28;20120;-67
2022/08/14 00:25:38;;;;;;;9.68;5.03;;;29.00;99.90;;;;;;4171646;28;20052;-69
2022/08/14 00:27:45;;;;;;;11.10;5.43;;;29.00;99.90;;;;;;4172431;28;20037;-69
2022/08/14 00:29:56;;;;;;;10.20;5.03;;;29.00;99.90;;;;;;4169855;28;20041;-68
2022/08/14 00:32:05;;;;;;;14.50;5.10;;;29.00;99.90;;;;;;4172140;28;20045;-68
2022/08/14 00:34:30;;;;;;;10.27;4.95;;;29.10;99.90;;;;;;4168954;28;20535;-68
2022/08/14 00:36:49;;;;;;;9.48;5.03;;;29.10;99.90;;;;;;4173462;28;20068;-68
2022/08/14 00:38:57;;;;;;;10.13;5.53;;;29.20;99.90;;;;;;4171641;28;20376;-66
2022/08/14 00:41:21;;;;;;;9.13;4.72;;;29.20;99.90;;;;;;4172998;28;20065;-67
2022/08/14 00:43:28;;;;;;;12.65;5.00;;;29.20;99.90;;;;;;4170857;28;20053;-67
2022/08/14 00:45:36;;;;;;;10.57;4.72;;;29.20;99.90;;;;;;4170642;28;20192;-66
2022/08/14 00:47:44;;;;;;;8.63;4.68;;;29.30;99.90;;;;;;4171989;28;20053;-66
2022/08/14 00:49:49;;;;;;;9.95;4.85;;;29.40;99.90;;;;;;4175722;28;20564;-66
2022/08/14 00:51:59;;;;;;;9.15;4.85;;;29.40;99.90;;;;;;4206803;28;20040;-66
2022/08/14 00:54:04;;;;;;;9.80;4.78;;;29.40;99.90;;;;;;4207734;28;20509;-66
2022/08/14 00:56:23;;;;;;;12.20;5.25;;;29.40;99.90;;;;;;4205094;28;20653;-66
2022/08/14 00:58:35;;;;;;;10.07;4.78;;;29.50;99.90;;;;;;4205180;28;20048;-66
2022/08/14 01:00:47;;;;;;;15.68;5.20;;;29.50;99.90;;;;;;4205476;28;20051;-65
2022/08/14 01:02:53;;;;;;;24.70;6.10;;;29.60;99.90;;;;;;4205535;28;20052;-66
2022/08/14 01:05:06;;;;;;;25.17;6.10;;;29.70;99.90;;;;;;4208115;28;20143;-66
2022/08/14 01:07:11;;;;;;;17.60;5.43;;;29.80;99.90;;;;;;4208165;28;20082;-66
2022/08/14 01:09:18;;;;;;;12.30;4.90;;;29.80;99.90;;;;;;4207200;28;20385;-67
2022/08/14 01:11:26;;;;;;;10.43;4.53;;;29.80;99.90;;;;;;4205212;28;20399;-67
2022/08/14 01:13:39;;;;;;;10.90;4.43;;;29.80;99.90;;;;;;4207678;28;20158;-67
2022/08/14 01:15:47;;;;;;;12.60;4.68;;;29.80;99.90;;;;;;4205658;28;20523;-67
2022/08/14 01:22:44;;;;;;;18.08;4.35;;;30.00;99.90;;;;;;4207375;28;20405;-68
2022/08/14 01:24:54;;;;;;;18.30;4.72;;;30.00;99.90;;;;;;4206751;28;20040;-67
2022/08/14 01:27:00;;;;;;;12.27;4.30;;;30.10;99.90;;;;;;4222506;28;20050;-67
2022/08/14 01:29:07;;;;;;;11.00;4.13;;;30.20;99.90;;;;;;4206538;28;20097;-68
2022/08/14 01:31:48;;;;;;;9.30;4.00;;;30.20;99.90;;;;;;4171492;28;20049;-67
2022/08/14 01:33:55;;;;;;;7.78;4.00;;;30.20;99.90;;;;;;4188579;28;20083;-67
2022/08/14 01:36:20;;;;;;;7.80;3.72;;;30.30;99.90;;;;;;4187070;28;20118;-67
2022/08/14 01:38:35;;;;;;;10.10;4.38;;;30.30;99.90;;;;;;4188507;28;20086;-67
2022/08/14 01:40:46;;;;;;;11.38;3.97;;;30.40;99.90;;;;;;4188646;28;20041;-68
2022/08/14 01:43:02;;;;;;;12.90;4.10;;;30.50;99.90;;;;;;4190136;28;20083;-70
2022/08/14 01:45:14;;;;;;;11.18;4.40;;;30.40;99.90;;;;;;4192450;28;20045;-67
2022/08/14 01:47:28;;;;;;;10.60;3.92;;;30.40;99.90;;;;;;4191675;28;20036;-67
2022/08/14 01:49:40;;;;;;;12.45;4.40;;;30.50;99.90;;;;;;4190256;28;20127;-67
2022/08/14 01:52:04;;;;;;;14.27;4.45;;;30.50;99.90;;;;;;4141133;28;20160;-67
2022/08/14 01:54:24;;;;;;;9.57;3.67;;;30.70;99.90;;;;;;4190685;28;20048;-67
2022/08/14 01:56:43;;;;;;;9.75;3.90;;;30.80;99.90;;;;;;4192082;28;20132;-67
2022/08/14 01:59:02;;;;;;;8.35;3.13;;;30.80;99.90;;;;;;4190916;28;20098;-68
2022/08/14 02:01:16;;;;;;;10.85;3.45;;;30.90;99.90;;;;;;4174512;28;20049;-68
2022/08/14 02:03:24;;;;;;;10.07;3.63;;;30.90;99.90;;;;;;4192739;28;20057;-67
2022/08/14 02:05:35;;;;;;;10.45;3.90;;;30.90;99.90;;;;;;4192164;28;20048;-66
2022/08/14 02:07:44;;;;;;;9.23;4.13;;;30.90;99.90;;;;;;4190744;28;20931;-66
2022/08/14 02:09:59;;;;;;;10.75;3.75;;;30.90;99.90;;;;;;4207645;28;20067;-67
2022/08/14 02:12:11;;;;;;;24.65;5.45;;;31.00;99.90;;;;;;4175110;28;20086;-67
2022/08/14 02:14:30;;;;;;;14.40;4.10;;;31.00;99.40;;;;;;4210000;28;20486;-67
2022/08/14 02:16:43;;;;;;;10.23;3.40;;;31.10;99.40;;;;;;4207872;28;20537;-67
2022/08/14 02:18:54;;;;;;;16.42;3.53;;;31.00;99.20;;;;;;4207907;28;20071;-66
2022/08/14 02:21:03;;;;;;;12.57;4.50;;;31.10;99.30;;;;;;4210239;28;20135;-67
2022/08/14 02:23:13;;;;;;;18.35;5.13;;;31.10;98.90;;;;;;4210868;28;20772;-68
2022/08/14 02:25:29;;;;;;;13.73;4.20;;;31.20;98.90;;;;;;4210384;28;20046;-67
2022/08/14 02:27:35;;;;;;;8.57;3.50;;;31.20;98.90;;;;;;4211240;28;20546;-68
2022/08/14 02:30:00;;;;;;;9.20;3.40;;;31.30;98.70;;;;;;4210654;28;20127;-68
2022/08/14 02:32:09;;;;;;;9.20;3.55;;;31.40;98.80;;;;;;4208784;28;20063;-68
2022/08/14 02:34:35;;;;;;;9.15;3.40;;;31.60;98.60;;;;;;4210105;28;20048;-68
2022/08/14 02:36:44;;;;;;;8.70;3.95;;;31.60;98.40;;;;;;4209053;28;20056;-68
2022/08/14 02:39:09;;;;;;;5.50;3.20;;;31.50;97.60;;;;;;4210074;28;20048;-68
2022/08/14 02:41:16;;;;;;;8.50;3.30;;;31.60;97.30;;;;;;4209806;28;20052;-68
2022/08/14 02:43:21;;;;;;;9.05;3.70;;;31.60;97.50;;;;;;4210647;28;20051;-67
2022/08/14 02:45:43;;;;;;;7.07;3.33;;;31.70;97.80;;;;;;4210041;28;20126;-67
2022/08/14 02:47:50;;;;;;;7.82;3.55;;;31.80;97.80;;;;;;4225356;28;20044;-67
2022/08/14 02:49:59;;;;;;;10.55;3.88;;;31.90;98.00;;;;;;4209560;28;20089;-66
2022/08/14 02:52:06;;;;;;;16.25;4.65;;;32.00;97.90;;;;;;4208860;28;20078;-67
2022/08/14 02:54:32;;;;;;;13.40;4.00;;;32.10;98.10;;;;;;4209846;28;20415;-67
2022/08/14 02:56:37;;;;;;;11.70;4.13;;;32.20;98.40;;;;;;4210722;28;20619;-67
2022/08/14 02:59:05;;;;;;;11.27;4.35;;;32.30;98.10;;;;;;4209956;28;20048;-67
2022/08/14 03:01:10;;;;;;;9.57;4.13;;;32.30;97.80;;;;;;4225143;28;20113;-66
2022/08/14 03:03:19;;;;;;;8.23;3.15;;;32.30;97.10;;;;;;4192607;28;20574;-65
2022/08/14 03:05:29;;;;;;;7.43;3.20;;;32.40;96.00;;;;;;4191382;28;20064;-66
2022/08/14 03:07:39;;;;;;;8.85;3.30;;;32.30;96.30;;;;;;4208508;28;20036;-66
2022/08/14 03:09:45;;;;;;;9.23;3.97;;;32.40;96.10;;;;;;4209303;28;20047;-66
2022/08/14 03:12:09;;;;;;;7.32;3.17;;;32.30;95.60;;;;;;4208973;28;20036;-67
2022/08/14 03:14:15;;;;;;;7.68;3.15;;;32.50;95.90;;;;;;4204887;28;20068;-67
2022/08/14 03:16:23;;;;;;;8.13;3.10;;;32.50;95.60;;;;;;4209380;28;20642;-66
2022/08/14 03:18:31;;;;;;;10.77;3.58;;;32.50;96.00;;;;;;4209314;28;20200;-66
2022/08/14 03:20:36;;;;;;;9.40;3.53;;;32.70;96.10;;;;;;4206791;28;20051;-66
2022/08/14 03:22:41;;;;;;;9.65;4.65;;;32.80;95.80;;;;;;4210919;28;20078;-66
2022/08/14 03:24:53;;;;;;;7.70;3.25;;;32.80;95.50;;;;;;4209358;28;20055;-67
2022/08/14 03:27:00;;;;;;;7.72;3.58;;;32.90;95.50;;;;;;4208979;28;20047;-68
2022/08/14 03:29:11;;;;;;;10.23;3.95;;;32.80;96.00;;;;;;4208561;28;20040;-67
2022/08/14 03:31:22;;;;;;;7.50;3.33;;;32.80;96.20;;;;;;4174246;28;20048;-66
2022/08/14 03:33:30;;;;;;;6.78;3.30;;;32.70;96.40;;;;;;4209665;28;20043;-66
2022/08/14 03:35:42;;;;;;;8.32;3.50;;;32.70;96.30;;;;;;4208419;28;20399;-68
2022/08/14 03:38:11;;;;;;;7.47;3.67;;;32.70;96.50;;;;;;4190076;28;20067;-69
2022/08/14 03:40:37;;;;;;;16.05;6.93;;;32.70;96.40;;;;;;4191279;28;20075;-67
2022/08/14 03:42:42;;;;;;;11.00;5.75;;;32.60;96.40;;;;;;4191317;28;20052;-66
2022/08/14 03:44:50;;;;;;;13.90;6.70;;;32.60;96.10;;;;;;4190652;28;20068;-66
2022/08/14 03:47:16;;;;;;;13.40;6.75;;;32.70;96.00;;;;;;4185107;28;20036;-67
2022/08/14 03:49:23;;;;;;;10.48;4.15;;;32.60;96.30;;;;;;4190692;28;20788;-68
2022/08/14 03:51:32;;;;;;;7.55;3.30;;;32.60;96.40;;;;;;4189986;28;20051;-68
2022/08/14 03:53:40;;;;;;;7.65;3.72;;;32.40;96.00;;;;;;4191322;28;20029;-69
2022/08/14 03:55:47;;;;;;;8.38;3.47;;;32.30;96.20;;;;;;4191948;28;20072;-67
2022/08/14 03:57:56;;;;;;;8.77;3.60;;;32.30;96.50;;;;;;4192213;28;20468;-67
2022/08/14 04:00:07;;;;;;;11.90;3.75;;;32.20;96.70;;;;;;4191738;28;20040;-67
2022/08/14 04:02:32;;;;;;;9.35;3.65;;;32.20;96.20;;;;;;4189747;28;20048;-69
2022/08/14 04:04:52;;;;;;;5.03;3.00;;;32.30;96.40;;;;;;4191512;28;20093;-68
2022/08/14 04:06:58;;;;;;;9.15;3.75;;;32.30;96.10;;;;;;4190437;28;20044;-67
2022/08/14 04:09:05;;;;;;;6.05;3.30;;;32.10;95.60;;;;;;4191785;28;20052;-66
2022/08/14 04:11:14;;;;;;;8.02;3.67;;;32.10;95.50;;;;;;4187356;28;20620;-68
2022/08/14 04:13:20;;;;;;;8.77;3.13;;;32.20;95.90;;;;;;4191612;28;20117;-68
2022/08/14 04:15:27;;;;;;;8.35;3.05;;;32.10;95.80;;;;;;4197324;28;20056;-71
2022/08/14 04:17:35;;;;;;;7.78;3.67;;;32.10;96.00;;;;;;4209268;28;20493;-66
2022/08/14 04:19:41;;;;;;;9.90;3.65;;;32.10;95.70;;;;;;4211015;28;20074;-65
2022/08/14 04:21:48;;;;;;;12.85;3.80;;;32.10;96.00;;;;;;4211295;28;20036;-66
2022/08/14 04:24:09;;;;;;;10.75;3.25;;;32.00;95.70;;;;;;4210122;28;20043;-67
2022/08/14 04:26:21;;;;;;;8.07;3.55;;;32.00;96.10;;;;;;4208603;28;20066;-67
2022/08/14 04:28:45;;;;;;;7.82;3.38;;;32.10;95.90;;;;;;4210021;28;20462;-66
2022/08/14 04:31:12;;;;;;;8.23;3.15;;;32.20;95.00;;;;;;4208708;28;20141;-66
2022/08/14 04:33:17;;;;;;;7.88;3.33;;;32.10;95.40;;;;;;4208311;28;20055;-66
2022/08/14 04:35:24;;;;;;;7.93;3.28;;;32.40;95.50;;;;;;4207392;28;20532;-66
2022/08/14 04:45:07;;;;;;;7.93;3.28;;;32.80;95.30;;;;;;4171931;28;20049;-70
2022/08/14 04:49:35;;;;;;;9.23;3.50;;;33.20;95.00;;;;;;4171435;28;20635;-68
2022/08/14 04:51:50;;;;;;;7.47;3.30;;;33.20;94.40;;;;;;4172522;28;20049;-69
2022/08/14 04:54:00;;;;;;;7.68;3.03;;;33.20;94.20;;;;;;4156709;28;20042;-69
2022/08/14 04:56:06;;;;;;;7.65;3.60;;;33.10;94.40;;;;;;4173239;28;20132;-68
2022/08/14 04:58:31;;;;;;;8.60;3.83;;;33.10;94.90;;;;;;4172886;28;20044;-68
2022/08/14 05:00:38;;;;;;;10.00;5.20;;;33.00;95.50;;;;;;4172071;28;20051;-69
2022/08/14 05:02:51;;;;;;;10.45;4.63;;;33.20;95.80;;;;;;4179922;28;20068;-67
2022/08/14 05:04:55;;;;;;;8.48;4.10;;;33.50;95.30;;;;;;4190896;28;20106;-67
2022/08/14 05:07:02;;;;;;;8.88;3.00;;;33.40;94.70;;;;;;4190569;28;20047;-67
2022/08/14 05:09:09;;;;;;;8.50;3.05;;;33.30;93.80;;;;;;4174063;28;20048;-67
2022/08/14 05:11:18;;;;;;;9.68;3.25;;;33.00;94.00;;;;;;4189794;28;20597;-67
2022/08/14 05:13:23;;;;;;;7.80;3.08;;;32.90;93.90;;;;;;4190624;28;20072;-67
2022/08/14 05:15:37;;;;;;;7.13;2.97;;;32.80;93.80;;;;;;4199289;28;20051;-67
2022/08/14 05:17:45;;;;;;;10.05;3.42;;;32.80;93.90;;;;;;4207739;28;20059;-67
2022/08/14 05:20:08;;;;;;;6.68;3.00;;;32.80;93.60;;;;;;4208145;28;20052;-69
2022/08/14 05:22:36;;;;;;;10.68;3.40;;;32.90;93.50;;;;;;4193926;28;20098;-67
2022/08/14 05:24:41;;;;;;;10.68;3.58;;;32.90;93.30;;;;;;4195886;28;20207;-68
2022/08/14 05:26:46;;;;;;;11.27;3.15;;;33.00;93.80;;;;;;4188238;28;20024;-68
2022/08/14 05:28:55;;;;;;;10.35;3.38;;;33.20;94.20;;;;;;4189743;28;20549;-67
2022/08/14 05:31:02;;;;;;;11.18;3.33;;;33.30;94.10;;;;;;4189253;28;20490;-68
2022/08/14 05:33:10;;;;;;;8.98;3.22;;;33.00;93.90;;;;;;4189146;28;20047;-68
2022/08/14 05:35:19;;;;;;;9.60;3.63;;;33.00;94.70;;;;;;4170308;28;20522;-68
2022/08/14 05:37:26;;;;;;;8.93;3.80;;;33.00;94.90;;;;;;4188974;28;20045;-67
2022/08/14 05:39:32;;;;;;;7.25;3.55;;;32.90;95.20;;;;;;4190001;28;20058;-68
2022/08/14 05:41:44;;;;;;;11.00;3.90;;;32.80;95.20;;;;;;4154589;28;20072;-68
2022/08/14 05:43:58;;;;;;;7.22;3.35;;;32.90;95.40;;;;;;4189405;28;20079;-68
2022/08/14 05:46:03;;;;;;;10.20;3.53;;;32.80;95.30;;;;;;4189131;28;20603;-68
2022/08/14 05:48:17;;;;;;;9.27;3.47;;;32.80;95.40;;;;;;4189158;28;20052;-68
2022/08/14 05:50:38;;;;;;;8.60;3.38;;;32.70;95.40;;;;;;4188780;28;20041;-68
2022/08/14 05:52:44;;;;;;;6.80;3.50;;;32.60;95.40;;;;;;4189818;28;20040;-67
2022/08/14 05:54:50;;;;;;;12.38;3.58;;;32.60;95.50;;;;;;4190189;28;20479;-68
2022/08/14 05:56:56;;;;;;;7.32;3.55;;;32.60;95.80;;;;;;4189814;28;20064;-68
2022/08/14 05:59:04;;;;;;;9.98;4.05;;;32.60;95.90;;;;;;4187814;28;20227;-68
2022/08/14 06:01:12;;;;;;;11.70;3.70;;;32.50;96.00;;;;;;4206550;28;20135;-68
2022/08/14 06:03:20;;;;;;;8.00;3.80;;;32.50;96.30;;;;;;4208725;28;20144;-68
2022/08/14 06:05:26;;;;;;;8.13;3.28;;;32.40;96.40;;;;;;4207546;28;20069;-68
2022/08/14 06:07:37;;;;;;;7.55;3.20;;;32.40;96.40;;;;;;4208891;28;20032;-68
2022/08/14 06:09:43;;;;;;;8.32;3.38;;;32.30;96.50;;;;;;4208041;28;20040;-68
2022/08/14 06:11:55;;;;;;;6.00;3.40;;;32.20;96.80;;;;;;4208470;28;20040;-68
2022/08/14 06:14:02;;;;;;;8.40;3.40;;;32.10;97.40;;;;;;4208509;28;20040;-68
2022/08/14 06:16:17;;;;;;;6.95;3.47;;;32.10;97.50;;;;;;4208761;28;20421;-68
2022/08/14 06:18:21;;;;;;;9.27;3.65;;;32.10;97.80;;;;;;4209048;28;20408;-69
2022/08/14 06:20:28;;;;;;;7.97;3.85;;;32.20;97.90;;;;;;4208881;28;20044;-68
2022/08/14 06:22:35;;;;;;;11.55;4.15;;;32.20;98.00;;;;;;4223228;28;20180;-68
2022/08/14 06:24:40;;;;;;;12.55;4.63;;;32.10;98.30;;;;;;4209295;28;20040;-69
2022/08/14 06:26:47;;;;;;;13.70;4.57;;;32.00;98.60;;;;;;4208637;28;20040;-69
2022/08/14 06:28:59;;;;;;;15.27;4.88;;;32.00;98.80;;;;;;4207442;28;20426;-69
2022/08/14 06:31:04;;;;;;;12.60;4.57;;;32.00;99.10;;;;;;4211282;28;20044;-68
2022/08/14 06:33:11;;;;;;;8.75;4.43;;;31.80;99.60;;;;;;4212616;28;20581;-68
2022/08/14 06:35:19;;;;;;;11.02;4.50;;;31.80;99.90;;;;;;4211062;28;20079;-68
2022/08/14 06:37:23;;;;;;;8.48;4.90;;;31.80;99.90;;;;;;4212445;28;20052;-69
2022/08/14 06:39:28;;;;;;;9.40;4.28;;;31.80;99.90;;;;;;4211735;28;20039;-68
2022/08/14 06:41:41;;;;;;;19.08;4.40;;;31.80;99.90;;;;;;4207164;28;20914;-68
2022/08/14 06:44:02;;;;;;;16.17;5.45;;;31.80;99.90;;;;;;4205595;28;20046;-68
2022/08/14 06:46:11;;;;;;;13.10;5.60;;;31.80;99.90;;;;;;4211015;28;20497;-67
2022/08/14 06:48:36;;;;;;;11.23;4.95;;;31.80;99.90;;;;;;4210895;28;20078;-68
2022/08/14 06:50:46;;;;;;;14.00;5.78;;;31.80;99.90;;;;;;4208800;28;20044;-67
2022/08/14 06:52:52;;;;;;;14.15;5.70;;;31.90;99.90;;;;;;4210638;28;20475;-68
2022/08/14 06:54:56;;;;;;;12.80;5.88;;;31.80;99.90;;;;;;4210674;28;20089;-67
2022/08/14 06:57:01;;;;;;;13.13;5.50;;;31.80;99.90;;;;;;4209104;28;20054;-69
2022/08/14 06:59:06;;;;;;;10.55;5.47;;;31.90;99.90;;;;;;4210283;28;20047;-69
2022/08/14 07:06:02;;;;;;;9.45;4.93;;;32.10;99.90;;;;;;4209206;28;20746;-67
2022/08/14 07:08:21;;;;;;;11.38;4.70;;;32.20;99.90;;;;;;4210509;28;20051;-68
2022/08/14 07:10:28;;;;;;;9.05;5.07;;;32.20;99.90;;;;;;4209419;28;20151;-67
2022/08/14 07:12:35;;;;;;;17.65;5.07;;;32.30;99.90;;;;;;4210106;28;20044;-67
2022/08/14 07:15:02;;;;;;;11.38;5.30;;;32.30;99.90;;;;;;4209758;28;20040;-67
2022/08/14 07:17:07;;;;;;;8.20;4.15;;;32.30;99.90;;;;;;4210551;28;20042;-67
2022/08/14 07:19:16;;;;;;;10.45;4.80;;;32.40;99.90;;;;;;4209995;28;20036;-66
2022/08/14 07:21:25;;;;;;;11.05;4.63;;;32.50;99.90;;;;;;4192224;28;20937;-66
2022/08/14 07:23:32;;;;;;;11.50;5.13;;;32.50;99.90;;;;;;4210706;28;20033;-66
2022/08/14 07:25:44;;;;;;;9.67;4.37;;;32.50;99.90;;;;;;4209722;28;20569;-66
2022/08/14 07:27:51;;;;;;;8.50;4.55;;;32.50;99.90;;;;;;4212596;28;20046;-66
2022/08/14 07:29:56;;;;;;;11.32;5.50;;;32.60;99.90;;;;;;4210774;28;20036;-66
2022/08/14 07:32:05;;;;;;;8.77;4.60;;;32.60;99.90;;;;;;4173659;28;20140;-66
2022/08/14 07:34:12;;;;;;;11.02;5.63;;;32.70;99.90;;;;;;4211753;28;20036;-67
2022/08/14 07:36:37;;;;;;;13.82;7.75;;;32.60;99.90;;;;;;4210987;28;20046;-67
2022/08/14 07:39:00;;;;;;;;;;;32.60;99.90;;;;;;4211239;28;20078;-66
2022/08/14 07:41:17;;;;;;;16.92;10.20;;;32.70;99.90;;;;;;4210207;28;19956;-67
2022/08/14 07:43:21;;;;;;;20.00;10.52;;;32.70;99.90;;;;;;4210838;28;20051;-68
2022/08/14 07:45:28;;;;;;;15.43;8.10;;;32.80;99.90;;;;;;4208954;28;20456;-67
2022/08/14 07:47:40;;;;;;;10.77;6.28;;;32.80;99.90;;;;;;4210624;28;20370;-67
2022/08/14 07:50:08;;;;;;;9.25;5.13;;;32.70;99.90;;;;;;4209465;28;20048;-67
2022/08/14 07:52:21;;;;;;;9.30;4.43;;;32.70;99.90;;;;;;4211450;28;20036;-67
2022/08/14 07:54:36;;;;;;;7.20;4.38;;;32.60;99.90;;;;;;4209964;28;20055;-66
2022/08/14 07:56:44;;;;;;;7.30;3.50;;;32.60;99.90;;;;;;4210000;28;20119;-66
2022/08/14 07:58:55;;;;;;;8.10;4.40;;;32.50;99.60;;;;;;4210057;28;20383;-66
2022/08/14 08:01:01;;;;;;;5.97;3.40;;;32.50;99.70;;;;;;4210931;28;20499;-67
2022/08/14 08:03:11;;;;;;;10.65;4.07;;;32.40;99.50;;;;;;4209068;28;20048;-66
2022/08/14 08:05:20;;;;;;;7.95;4.13;;;32.40;99.60;;;;;;4208771;28;20043;-67
2022/08/14 08:07:27;;;;;;;11.98;4.15;;;32.50;99.50;;;;;;4209370;28;20036;-66
2022/08/14 08:09:34;;;;;;;7.00;3.97;;;32.40;99.60;;;;;;4208234;28;20044;-67
2022/08/14 08:11:40;;;;;;;6.68;3.42;;;32.40;99.40;;;;;;4209502;28;20044;-67
2022/08/14 08:13:48;;;;;;;8.50;3.72;;;32.40;99.00;;;;;;4208853;28;20074;-67
2022/08/14 08:15:57;;;;;;;9.10;3.72;;;32.30;99.00;;;;;;4209771;28;20055;-67
2022/08/14 08:18:06;;;;;;;9.00;3.80;;;32.30;99.00;;;;;;4202142;28;20052;-67
2022/08/14 08:20:25;;;;;;;8.60;3.42;;;32.30;99.00;;;;;;4208810;28;20456;-67
2022/08/14 08:22:32;;;;;;;9.18;4.10;;;32.30;99.20;;;;;;4208666;28;20159;-68
2022/08/14 08:24:37;;;;;;;10.52;3.83;;;32.40;99.10;;;;;;4210855;28;20834;-69
2022/08/14 08:26:44;;;;;;;8.43;3.85;;;32.40;99.30;;;;;;4207378;28;20490;-73
2022/08/14 08:28:57;;;;;;;9.60;3.75;;;32.50;99.40;;;;;;4203140;28;20036;-70
2022/08/14 08:31:07;;;;;;;7.55;3.22;;;32.40;99.30;;;;;;4200543;28;20040;-67
2022/08/14 08:33:14;;;;;;;6.97;3.20;;;32.40;99.30;;;;;;4210425;28;20040;-68
2022/08/14 08:35:22;;;;;;;9.57;3.70;;;32.40;99.50;;;;;;4206999;28;20442;-68
2022/08/14 08:37:49;;;;;;;9.27;5.32;;;32.40;99.90;;;;;;4192173;28;20128;-68
2022/08/14 08:40:06;;;;;;;13.77;7.82;;;32.30;99.60;;;;;;4191178;28;20044;-67
2022/08/14 08:42:12;;;;;;;11.65;8.07;;;32.30;99.60;;;;;;4174837;28;20041;-68
2022/08/14 08:44:19;;;;;;;12.38;6.20;;;32.40;99.50;;;;;;4187141;28;20110;-68
2022/08/14 08:46:36;;;;;;;8.07;4.93;;;32.50;99.40;;;;;;4191397;28;20044;-69
2022/08/14 08:48:51;;;;;;;8.73;4.68;;;32.40;99.00;;;;;;4194362;28;20052;-68
2022/08/14 08:50:57;;;;;;;8.60;3.63;;;32.40;99.60;;;;;;4149175;28;20116;-69
2022/08/14 08:53:09;;;;;;;9.65;4.18;;;32.40;99.90;;;;;;4191662;28;20045;-68
2022/08/14 08:55:14;;;;;;;8.07;3.92;;;32.50;99.80;;;;;;4189974;28;20075;-67
2022/08/14 08:57:22;;;;;;;9.07;3.80;;;32.50;99.90;;;;;;4175386;28;20052;-68
2022/08/14 08:59:31;;;;;;;7.45;3.80;;;32.50;99.90;;;;;;4192089;28;20044;-67
2022/08/14 09:01:37;;;;;;;6.57;3.33;;;32.50;99.70;;;;;;4189825;28;20059;-68
2022/08/14 09:04:03;;;;;;;;;;;32.50;99.80;;;;;;4157965;28;20714;-68
2022/08/14 09:06:18;;;;;;;8.20;3.65;;;32.50;99.50;;;;;;4175388;28;20276;-68
2022/08/14 09:08:45;;;;;;;7.35;3.80;;;32.50;99.30;;;;;;4195945;28;20044;-67
2022/08/14 09:10:54;;;;;;;11.90;3.90;;;32.50;99.00;;;;;;4208204;28;20082;-69
2022/08/14 09:13:01;;;;;;;7.82;3.55;;;32.50;99.00;;;;;;4208636;28;20101;-68
2022/08/14 09:15:08;;;;;;;7.10;3.63;;;32.40;98.60;;;;;;4208311;28;20126;-68
2022/08/14 09:17:15;;;;;;;8.73;3.78;;;32.50;98.70;;;;;;4209490;28;20148;-68
2022/08/14 09:19:23;;;;;;;10.30;3.30;;;32.40;98.50;;;;;;4207861;28;20055;-68
2022/08/14 09:21:29;;;;;;;11.18;4.00;;;32.40;98.60;;;;;;4209569;28;20048;-69
2022/08/14 09:23:34;;;;;;;9.38;3.85;;;32.40;98.80;;;;;;4210351;28;20442;-70
2022/08/14 09:25:59;;;;;;;11.82;4.05;;;32.40;98.70;;;;;;4208894;28;20090;-70
2022/08/14 09:28:07;;;;;;;10.10;4.30;;;32.40;99.10;;;;;;4209883;28;20040;-68
2022/08/14 09:30:12;;;;;;;11.30;4.00;;;32.40;99.20;;;;;;4209437;28;20039;-69
2022/08/14 09:32:52;;;;;;;10.75;4.38;;;32.40;99.40;;;;;;4207668;28;20529;-67
2022/08/14 09:35:23;;;;;;;9.20;3.90;;;32.40;99.70;;;;;;4208302;28;20067;-68
2022/08/14 09:37:44;;;;;;;9.25;4.13;;;32.40;99.70;;;;;;4224198;28;20112;-67
2022/08/14 09:40:16;;;;;;;10.02;4.28;;;32.30;99.50;;;;;;4207321;28;20102;-67
2022/08/14 09:42:55;;;;;;;11.93;4.45;;;32.30;99.30;;;;;;4208340;28;20079;-69
2022/08/14 09:45:31;;;;;;;8.35;4.18;;;32.30;99.20;;;;;;4207670;28;20462;-68
2022/08/14 09:47:56;;;;;;;9.52;4.10;;;32.30;98.70;;;;;;4207814;28;20093;-68
2022/08/14 09:50:01;;;;;;;11.02;4.78;;;32.30;98.90;;;;;;4209180;28;20037;-68
2022/08/14 09:52:11;;;;;;;9.23;5.28;;;32.30;99.10;;;;;;4209106;28;20044;-68
2022/08/14 09:54:41;;;;;;;13.32;6.13;;;32.30;99.00;;;;;;4207130;28;20129;-68
2022/08/14 09:56:48;;;;;;;11.77;5.25;;;32.20;99.10;;;;;;4209799;28;20044;-72
2022/08/14 09:59:13;;;;;;;15.82;5.57;;;32.20;98.70;;;;;;4192651;28;20079;-68
2022/08/14 10:01:20;;;;;;;12.52;4.60;;;32.20;98.30;;;;;;4208312;28;20816;-69
2022/08/14 10:03:31;;;;;;;11.73;4.53;;;32.20;98.30;;;;;;4205948;28;20040;-68
2022/08/14 10:05:37;;;;;;;9.23;3.72;;;32.20;98.40;;;;;;4210278;28;20097;-71
2022/08/14 10:07:50;;;;;;;15.60;4.45;;;32.20;98.50;;;;;;4195376;28;20041;-71
2022/08/14 10:10:02;;;;;;;14.52;4.97;;;32.20;98.70;;;;;;4212586;28;20460;-71
2022/08/14 10:12:41;;;;;;;12.02;4.97;;;32.20;99.00;;;;;;4212886;28;20086;-71
2022/08/14 10:14:47;;;;;;;10.25;6.15;;;32.20;99.00;;;;;;4212095;28;20634;-67
2022/08/14 10:17:00;;;;;;;11.82;5.28;;;32.10;99.00;;;;;;4212963;28;20483;-68
2022/08/14 10:19:08;;;;;;;10.85;5.22;;;32.00;98.90;;;;;;4212902;28;20067;-67
2022/08/14 10:21:16;;;;;;;7.97;4.68;;;32.00;98.80;;;;;;4213046;28;20457;-69
2022/08/14 10:23:27;;;;;;;10.02;5.20;;;31.90;98.80;;;;;;4210978;28;20036;-69
2022/08/14 10:25:43;;;;;;;9.02;5.13;;;31.80;99.10;;;;;;4211222;28;20437;-70
2022/08/14 10:27:56;;;;;;;10.57;5.57;;;31.80;99.00;;;;;;4211240;28;20111;-68
2022/08/14 10:30:03;;;;;;;11.63;5.50;;;31.80;99.30;;;;;;4212316;28;20806;-69
2022/08/14 10:32:14;;;;;;;11.85;6.88;;;31.80;99.80;;;;;;4211409;28;20055;-68
2022/08/14 10:34:33;;;;;;;48.33;27.45;;;31.80;99.80;;;;;;4228267;28;20055;-69
2022/08/14 10:36:44;;;;;;;40.65;21.13;;;31.80;99.90;;;;;;4211794;28;20584;-70
2022/08/14 10:39:00;;;;;;;58.95;40.42;;;31.80;99.90;;;;;;4212939;28;20039;-68
2022/08/14 10:41:15;;;;;;;44.88;30.05;;;31.70;99.90;;;;;;4212647;28;20642;-69
2022/08/14 10:43:24;;;;;;;29.13;20.45;;;31.70;99.90;;;;;;4206523;28;20121;-69
2022/08/14 10:45:34;;;;;;;24.52;12.73;;;31.60;99.90;;;;;;4213883;28;20040;-68
2022/08/14 10:47:49;;;;;;;16.23;8.77;;;31.60;99.90;;;;;;4213822;28;20428;-68
2022/08/14 10:50:13;;;;;;;15.82;7.38;;;31.50;99.90;;;;;;4213094;28;20517;-70
2022/08/14 10:52:23;;;;;;;12.23;7.90;;;31.50;99.90;;;;;;4162335;28;20053;-68
2022/08/14 10:54:43;;;;;;;14.63;7.10;;;31.60;99.90;;;;;;4213538;28;20048;-69
2022/08/14 10:56:54;;;;;;;16.58;7.78;;;31.50;99.90;;;;;;4213710;28;20040;-68
2022/08/14 10:59:04;;;;;;;15.32;7.82;;;31.40;99.90;;;;;;4213431;28;20687;-70
2022/08/14 11:01:13;;;;;;;17.70;9.60;;;31.40;99.90;;;;;;4213624;28;20525;-68
2022/08/14 11:03:20;;;;;;;15.63;10.07;;;31.40;99.90;;;;;;4212216;28;20109;-68
2022/08/14 11:05:46;;;;;;;19.55;10.45;;;31.40;99.90;;;;;;4203767;28;20078;-69
2022/08/14 11:07:59;;;;;;;13.98;8.23;;;31.40;99.90;;;;;;4200675;28;20482;-68
2022/08/14 11:10:13;;;;;;;15.85;7.53;;;31.40;99.90;;;;;;4196308;28;20041;-68
2022/08/14 11:12:18;;;;;;;12.32;7.60;;;31.40;99.90;;;;;;4204282;28;20064;-68
2022/08/14 11:14:39;;;;;;;10.77;7.00;;;31.40;99.90;;;;;;4204293;28;20078;-69
2022/08/14 11:16:43;;;;;;;13.18;7.45;;;31.10;99.90;;;;;;4211559;28;20040;-70
2022/08/14 11:18:55;;;;;;;11.00;6.57;;;31.10;99.90;;;;;;4210223;28;20040;-68
2022/08/14 11:21:03;;;;;;;14.70;7.65;;;31.10;99.90;;;;;;4211512;28;20379;-69
2022/08/14 11:23:09;;;;;;;13.35;7.50;;;30.90;99.90;;;;;;4211719;28;20044;-68
2022/08/14 11:25:14;;;;;;;14.15;7.72;;;31.00;99.90;;;;;;4212176;28;20068;-70
2022/08/14 11:27:21;;;;;;;14.18;7.53;;;31.10;99.90;;;;;;4208382;28;20064;-69
2022/08/14 11:29:35;;;;;;;13.63;8.00;;;31.10;99.90;;;;;;4210987;28;20083;-69
2022/08/14 11:31:41;;;;;;;10.55;7.13;;;31.20;99.90;;;;;;4211450;28;20051;-68
2022/08/14 11:33:57;;;;;;;13.23;7.43;;;31.20;99.90;;;;;;4194976;28;20098;-68
2022/08/14 11:36:06;;;;;;;13.05;7.40;;;31.00;99.90;;;;;;4206436;28;20052;-67
2022/08/14 11:38:21;;;;;;;14.40;7.55;;;31.00;99.90;;;;;;4198956;28;20048;-71
2022/08/14 11:40:33;;;;;;;12.23;7.60;;;30.90;99.90;;;;;;4159535;28;20062;-70